createdAt,value
2023-03-01T00:00:29.478Z,0.38
2023-03-01T00:01:32.104Z,0.42
2023-03-01T00:02:34.031Z,0.47
2023-03-01T00:03:36.153Z,0.49
2023-03-01T00:04:37.954Z,0.53
2023-03-01T00:05:45.101Z,0.55
2023-03-01T00:06:47.753Z,0.60
2023-03-01T00:07:49.593Z,0.64
2023-03-01T00:08:51.734Z,0.65
2023-03-01T00:09:53.501Z,0.65
2023-03-01T00:11:02.356Z,0.66
2023-03-01T00:12:04.353Z,0.68
2023-03-01T00:13:06.530Z,0.72
2023-03-01T00:14:08.353Z,0.73
2023-03-01T00:15:10.155Z,0.68
2023-03-01T00:16:14.329Z,0.65
2023-03-01T00:17:16.200Z,0.64
2023-03-01T00:18:17.946Z,0.64
2023-03-01T00:19:21.186Z,0.62
2023-03-01T00:20:22.999Z,0.56
2023-03-01T00:21:25.345Z,0.57
2023-03-01T00:22:29.433Z,0.55
2023-03-01T00:23:31.350Z,0.54
2023-03-01T00:24:33.204Z,0.50
2023-03-01T00:25:35.031Z,0.43
2023-03-01T00:26:36.811Z,0.41
2023-03-01T00:27:38.586Z,0.43
2023-03-01T00:28:40.322Z,0.45
2023-03-01T00:29:42.123Z,0.47
2023-03-01T00:30:44.045Z,0.50
2023-03-01T00:31:45.887Z,0.53
2023-03-01T00:32:47.779Z,0.57
2023-03-01T00:33:49.654Z,0.59
2023-03-01T00:34:56.820Z,0.61
2023-03-01T00:36:01.838Z,0.55
2023-03-01T00:37:06.622Z,0.42
2023-03-01T00:38:08.473Z,0.32
2023-03-01T00:39:14.893Z,0.31
2023-03-01T00:40:17.587Z,0.35
2023-03-01T00:41:20.404Z,0.35
2023-03-01T00:42:23.448Z,0.41
2023-03-01T00:43:25.250Z,0.45
2023-03-01T00:44:27.050Z,0.48
2023-03-01T00:45:28.973Z,0.46
2023-03-01T00:46:32.023Z,0.45
2023-03-01T00:47:33.989Z,0.45
2023-03-01T00:48:36.116Z,0.47
2023-03-01T00:49:37.953Z,0.50
2023-03-01T00:50:40.102Z,0.53
2023-03-01T00:51:42.836Z,0.49
2023-03-01T00:52:45.123Z,0.36
2023-03-01T00:53:47.018Z,0.29
2023-03-01T00:54:48.904Z,0.23
2023-03-01T00:55:50.705Z,0.20
2023-03-01T00:56:52.566Z,0.15
2023-03-01T00:57:54.420Z,0.13
2023-03-01T00:58:56.134Z,0.11
2023-03-01T00:59:58.044Z,0.16
2023-03-01T01:01:00.025Z,0.21
2023-03-01T01:02:01.827Z,0.19
2023-03-01T01:03:03.808Z,0.17
2023-03-01T01:04:07.916Z,0.21
2023-03-01T01:05:10.420Z,0.28
2023-03-01T01:06:16.266Z,0.32
2023-03-01T01:07:18.553Z,0.35
2023-03-01T01:08:21.484Z,0.32
2023-03-01T01:09:23.324Z,0.34
2023-03-01T01:10:25.175Z,0.36
2023-03-01T01:11:28.218Z,0.36
2023-03-01T01:12:30.052Z,0.39
2023-03-01T01:13:31.839Z,0.41
2023-03-01T01:14:33.719Z,0.38
2023-03-01T01:15:36.139Z,0.37
2023-03-01T01:16:38.008Z,0.40
2023-03-01T01:17:39.884Z,0.40
2023-03-01T01:18:41.803Z,0.41
2023-03-01T01:19:43.796Z,0.39
2023-03-01T01:20:45.644Z,0.26
2023-03-01T01:21:47.976Z,0.13
2023-03-01T01:22:49.809Z,0.04
2023-03-01T01:23:51.743Z,-0.03
2023-03-01T01:24:53.552Z,0.01
2023-03-01T01:25:55.389Z,0.03
2023-03-01T01:26:57.423Z,-0.02
2023-03-01T01:27:59.210Z,-0.03
2023-03-01T01:29:01.573Z,0.03
2023-03-01T01:30:04.029Z,0.09
2023-03-01T01:31:06.138Z,0.08
2023-03-01T01:32:08.083Z,-0.02
2023-03-01T01:33:10.004Z,-0.13
2023-03-01T01:34:15.076Z,-0.14
2023-03-01T01:35:16.846Z,-0.14
2023-03-01T01:36:18.709Z,-0.13
2023-03-01T01:37:20.529Z,-0.09
2023-03-01T01:38:22.910Z,-0.06
2023-03-01T01:39:24.788Z,-0.03
2023-03-01T01:40:26.713Z,0.02
2023-03-01T01:41:29.581Z,0.04
2023-03-01T01:42:31.638Z,0.03
2023-03-01T01:43:38.175Z,-0.05
2023-03-01T01:44:41.395Z,-0.04
2023-03-01T01:45:43.206Z,-0.07
2023-03-01T01:46:44.986Z,-0.10
2023-03-01T01:47:49.813Z,-0.07
2023-03-01T01:48:55.604Z,-0.03
2023-03-01T01:49:57.821Z,-0.03
2023-03-01T01:51:01.897Z,-0.11
2023-03-01T01:52:07.394Z,-0.11
2023-03-01T01:53:15.227Z,-0.05
2023-03-01T01:54:20.195Z,-0.04
2023-03-01T01:55:27.151Z,-0.06
2023-03-01T01:56:30.421Z,-0.08
2023-03-01T01:57:37.322Z,-0.03
2023-03-01T01:58:39.676Z,0.02
2023-03-01T01:59:44.134Z,0.07
2023-03-01T02:00:46.017Z,0.09
2023-03-01T02:01:47.833Z,0.12
2023-03-01T02:02:53.158Z,0.12
2023-03-01T02:03:55.158Z,0.10
2023-03-01T02:05:05.219Z,0.06
2023-03-01T02:06:13.122Z,0.07
2023-03-01T02:07:19.889Z,0.05
2023-03-01T02:08:22.938Z,0.01
2023-03-01T02:09:25.113Z,-0.05
2023-03-01T02:10:28.389Z,-0.10
2023-03-01T02:11:31.551Z,-0.19
2023-03-01T02:12:34.055Z,-0.18
2023-03-01T02:13:36.337Z,-0.19
2023-03-01T02:14:38.148Z,-0.16
2023-03-01T02:15:41.728Z,-0.17
2023-03-01T02:16:44.111Z,-0.27
2023-03-01T02:17:46.208Z,-0.41
2023-03-01T02:18:48.342Z,-0.43
2023-03-01T02:19:55.693Z,-0.37
2023-03-01T02:21:03.460Z,-0.45
2023-03-01T02:22:15.784Z,-0.53
2023-03-01T02:23:17.616Z,-0.54
2023-03-01T02:24:33.674Z,-0.63
2023-03-01T02:25:35.514Z,-0.64
2023-03-01T02:26:51.327Z,-0.55
2023-03-01T02:27:53.075Z,-0.43
2023-03-01T02:28:55.005Z,-0.35
2023-03-01T02:29:57.753Z,-0.34
2023-03-01T02:31:18.338Z,-0.33
2023-03-01T02:32:26.448Z,-0.27
2023-03-01T02:33:28.277Z,-0.28
2023-03-01T02:34:32.471Z,-0.29
2023-03-01T02:35:39.458Z,-0.33
2023-03-01T02:36:47.511Z,-0.29
2023-03-01T02:37:49.643Z,-0.25
2023-03-01T02:38:53.016Z,-0.22
2023-03-01T02:39:59.567Z,-0.23
2023-03-01T02:41:03.292Z,-0.26
2023-03-01T02:42:05.891Z,-0.29
2023-03-01T02:43:09.588Z,-0.34
2023-03-01T02:44:11.840Z,-0.36
2023-03-01T02:45:15.309Z,-0.34
2023-03-01T02:46:23.476Z,-0.36
2023-03-01T02:47:25.398Z,-0.37
2023-03-01T02:48:27.169Z,-0.33
2023-03-01T02:49:30.419Z,-0.28
2023-03-01T02:50:32.218Z,-0.25
2023-03-01T02:51:34.019Z,-0.27
2023-03-01T02:52:48.164Z,-0.30
2023-03-01T02:53:49.961Z,-0.36
2023-03-01T02:55:11.836Z,-0.49
2023-03-01T02:56:14.785Z,-0.57
2023-03-01T02:57:16.809Z,-0.68
2023-03-01T02:58:18.824Z,-0.82
2023-03-01T02:59:26.052Z,-0.91
2023-03-01T03:00:30.200Z,-0.95
2023-03-01T03:01:40.829Z,-0.98
2023-03-01T03:02:42.718Z,-1.02
2023-03-01T03:03:44.554Z,-1.03
2023-03-01T03:04:46.458Z,-1.05
2023-03-01T03:05:49.568Z,-1.15
2023-03-01T03:06:52.271Z,-1.07
2023-03-01T03:07:54.706Z,-0.97
2023-03-01T03:08:56.498Z,-0.91
2023-03-01T03:09:58.371Z,-0.88
2023-03-01T03:11:00.110Z,-0.86
2023-03-01T03:12:01.854Z,-0.83
2023-03-01T03:13:05.042Z,-0.85
2023-03-01T03:14:07.062Z,-0.89
2023-03-01T03:15:10.082Z,-0.87
2023-03-01T03:16:11.837Z,-0.93
2023-03-01T03:17:13.651Z,-0.86
2023-03-01T03:18:16.918Z,-0.82
2023-03-01T03:19:19.227Z,-0.79
2023-03-01T03:20:22.982Z,-0.82
2023-03-01T03:21:24.705Z,-0.85
2023-03-01T03:22:26.529Z,-0.86
2023-03-01T03:23:28.424Z,-0.82
2023-03-01T03:24:39.183Z,-0.74
2023-03-01T03:25:41.124Z,-0.71
2023-03-01T03:26:42.989Z,-0.76
2023-03-01T03:27:46.000Z,-0.70
2023-03-01T03:28:47.998Z,-0.65
2023-03-01T03:29:49.844Z,-0.58
2023-03-01T03:30:51.820Z,-0.54
2023-03-01T03:31:53.699Z,-0.52
2023-03-01T03:32:55.682Z,-0.55
2023-03-01T03:33:58.031Z,-0.55
2023-03-01T03:34:59.793Z,-0.57
2023-03-01T03:36:01.622Z,-0.63
2023-03-01T03:37:03.558Z,-0.61
2023-03-01T03:38:16.620Z,-0.57
2023-03-01T03:39:20.617Z,-0.62
2023-03-01T03:40:22.567Z,-0.63
2023-03-01T03:41:24.465Z,-0.65
2023-03-01T03:42:26.217Z,-0.63
2023-03-01T03:43:28.130Z,-0.62
2023-03-01T03:44:29.894Z,-0.60
2023-03-01T03:45:34.607Z,-0.60
2023-03-01T03:46:36.687Z,-0.62
2023-03-01T03:47:38.489Z,-0.64
2023-03-01T03:48:42.270Z,-0.63
2023-03-01T03:49:44.140Z,-0.58
2023-03-01T03:50:50.522Z,-0.56
2023-03-01T03:51:52.416Z,-0.55
2023-03-01T03:52:54.259Z,-0.53
2023-03-01T03:53:56.005Z,-0.50
2023-03-01T03:54:57.849Z,-0.45
2023-03-01T03:55:59.998Z,-0.46
2023-03-01T03:57:01.836Z,-0.45
2023-03-01T03:58:08.112Z,-0.47
2023-03-01T03:59:12.590Z,-0.50
2023-03-01T04:00:14.640Z,-0.50
2023-03-01T04:01:16.429Z,-0.50
2023-03-01T04:02:23.450Z,-0.46
2023-03-01T04:03:26.335Z,-0.43
2023-03-01T04:04:28.072Z,-0.41
2023-03-01T04:05:30.544Z,-0.39
2023-03-01T04:06:32.629Z,-0.36
2023-03-01T04:07:35.165Z,-0.36
2023-03-01T04:08:37.098Z,-0.36
2023-03-01T04:09:38.841Z,-0.39
2023-03-01T04:10:42.130Z,-0.39
2023-03-01T04:11:43.935Z,-0.39
2023-03-01T04:12:45.751Z,-0.37
2023-03-01T04:13:47.481Z,-0.41
2023-03-01T04:14:49.273Z,-0.46
2023-03-01T04:15:51.898Z,-0.49
2023-03-01T04:16:53.687Z,-0.55
2023-03-01T04:17:56.406Z,-0.58
2023-03-01T04:19:00.843Z,-0.61
2023-03-01T04:20:06.852Z,-0.59
2023-03-01T04:21:08.758Z,-0.64
2023-03-01T04:22:12.447Z,-0.59
2023-03-01T04:23:17.346Z,-0.55
2023-03-01T04:24:19.167Z,-0.52
2023-03-01T04:25:21.417Z,-0.50
2023-03-01T04:26:23.252Z,-0.51
2023-03-01T04:27:25.037Z,-0.48
2023-03-01T04:28:26.941Z,-0.48
2023-03-01T04:29:28.798Z,-0.46
2023-03-01T04:30:30.594Z,-0.46
2023-03-01T04:31:32.525Z,-0.51
2023-03-01T04:32:34.926Z,-0.51
2023-03-01T04:33:36.839Z,-0.50
2023-03-01T04:34:38.683Z,-0.48
2023-03-01T04:35:41.919Z,-0.46
2023-03-01T04:36:43.888Z,-0.44
2023-03-01T04:37:46.289Z,-0.46
2023-03-01T04:38:51.116Z,-0.43
2023-03-01T04:39:53.111Z,-0.47
2023-03-01T04:40:54.883Z,-0.50
2023-03-01T04:41:56.873Z,-0.49
2023-03-01T04:42:58.711Z,-0.52
2023-03-01T04:44:01.380Z,-0.53
2023-03-01T04:45:03.210Z,-0.52
2023-03-01T04:46:10.434Z,-0.54
2023-03-01T04:47:12.242Z,-0.52
2023-03-01T04:48:14.053Z,-0.49
2023-03-01T04:49:17.237Z,-0.45
2023-03-01T04:50:21.479Z,-0.42
2023-03-01T04:51:23.374Z,-0.49
2023-03-01T04:52:25.253Z,-0.55
2023-03-01T04:53:27.649Z,-0.61
2023-03-01T04:54:30.032Z,-0.58
2023-03-01T04:55:32.766Z,-0.54
2023-03-01T04:56:34.645Z,-0.51
2023-03-01T04:57:36.544Z,-0.55
2023-03-01T04:58:38.529Z,-0.62
2023-03-01T04:59:40.452Z,-0.62
2023-03-01T05:00:42.237Z,-0.57
2023-03-01T05:01:44.202Z,-0.53
2023-03-01T05:02:46.097Z,-0.49
2023-03-01T05:03:51.209Z,-0.49
2023-03-01T05:04:53.144Z,-0.48
2023-03-01T05:05:54.984Z,-0.43
2023-03-01T05:06:57.526Z,-0.43
2023-03-01T05:08:00.888Z,-0.46
2023-03-01T05:09:03.684Z,-0.47
2023-03-01T05:10:05.906Z,-0.46
2023-03-01T05:11:10.114Z,-0.44
2023-03-01T05:12:11.856Z,-0.41
2023-03-01T05:13:22.328Z,-0.38
2023-03-01T05:14:24.126Z,-0.38
2023-03-01T05:15:29.278Z,-0.39
2023-03-01T05:16:34.885Z,-0.36
2023-03-01T05:17:37.805Z,-0.33
2023-03-01T05:18:39.741Z,-0.31
2023-03-01T05:19:43.840Z,-0.32
2023-03-01T05:20:45.942Z,-0.31
2023-03-01T05:22:05.953Z,-0.30
2023-03-01T05:23:07.784Z,-0.30
2023-03-01T05:24:12.863Z,-0.33
2023-03-01T05:25:15.336Z,-0.47
2023-03-01T05:26:34.038Z,-0.54
2023-03-01T05:27:36.566Z,-0.51
2023-03-01T05:28:39.079Z,-0.48
2023-03-01T05:29:40.892Z,-0.48
2023-03-01T05:30:43.001Z,-0.67
2023-03-01T05:31:44.766Z,-0.80
2023-03-01T05:32:51.075Z,-0.78
2023-03-01T05:33:53.934Z,-0.71
2023-03-01T05:34:56.324Z,-0.69
2023-03-01T05:36:00.952Z,-0.68
2023-03-01T05:37:03.005Z,-0.66
2023-03-01T05:38:04.723Z,-0.63
2023-03-01T05:39:06.488Z,-0.58
2023-03-01T05:40:16.817Z,-0.55
2023-03-01T05:41:18.674Z,-0.56
2023-03-01T05:42:20.437Z,-0.56
2023-03-01T05:43:22.284Z,-0.55
2023-03-01T05:44:24.605Z,-0.52
2023-03-01T05:45:27.597Z,-0.48
2023-03-01T05:46:31.075Z,-0.42
2023-03-01T05:47:33.047Z,-0.44
2023-03-01T05:48:34.894Z,-0.42
2023-03-01T05:49:38.909Z,-0.39
2023-03-01T05:50:42.957Z,-0.40
2023-03-01T05:51:48.450Z,-0.37
2023-03-01T05:52:51.500Z,-0.36
2023-03-01T05:53:53.270Z,-0.37
2023-03-01T05:54:55.146Z,-0.40
2023-03-01T05:55:57.039Z,-0.38
2023-03-01T05:56:58.824Z,-0.34
2023-03-01T05:58:01.564Z,-0.29
2023-03-01T05:59:04.459Z,-0.29
2023-03-01T06:00:07.682Z,-0.29
2023-03-01T06:01:12.514Z,-0.27
2023-03-01T06:02:14.294Z,-0.27
2023-03-01T06:03:17.735Z,-0.28
2023-03-01T06:04:19.575Z,-0.30
2023-03-01T06:05:21.507Z,-0.29
2023-03-01T06:06:23.931Z,-0.26
2023-03-01T06:07:25.786Z,-0.22
2023-03-01T06:08:28.475Z,-0.16
2023-03-01T06:09:30.291Z,-0.18
2023-03-01T06:10:32.104Z,-0.24
2023-03-01T06:11:35.425Z,-0.31
2023-03-01T06:12:38.218Z,-0.46
2023-03-01T06:13:40.027Z,-0.51
2023-03-01T06:14:41.813Z,-0.49
2023-03-01T06:15:43.700Z,-0.47
2023-03-01T06:16:45.585Z,-0.39
2023-03-01T06:17:47.779Z,-0.33
2023-03-01T06:18:49.620Z,-0.32
2023-03-01T06:19:51.415Z,-0.32
2023-03-01T06:20:56.924Z,-0.30
2023-03-01T06:21:58.703Z,-0.27
2023-03-01T06:23:01.300Z,-0.21
2023-03-01T06:24:03.056Z,-0.17
2023-03-01T06:25:05.362Z,-0.13
2023-03-01T06:26:10.554Z,-0.08
2023-03-01T06:27:12.392Z,-0.04
2023-03-01T06:28:14.166Z,-0.06
2023-03-01T06:29:16.051Z,-0.04
2023-03-01T06:30:19.361Z,-0.02
2023-03-01T06:31:21.278Z,-0.09
2023-03-01T06:32:23.223Z,-0.12
2023-03-01T06:33:25.695Z,-0.08
2023-03-01T06:34:27.554Z,-0.04
2023-03-01T06:35:31.117Z,0.01
2023-03-01T06:36:33.064Z,0.00
2023-03-01T06:37:36.537Z,-0.11
2023-03-01T06:38:38.400Z,-0.16
2023-03-01T06:39:40.336Z,-0.17
2023-03-01T06:40:42.506Z,-0.14
2023-03-01T06:41:44.484Z,-0.14
2023-03-01T06:42:52.607Z,-0.22
2023-03-01T06:43:55.949Z,-0.19
2023-03-01T06:44:57.849Z,-0.15
2023-03-01T06:45:59.589Z,-0.16
2023-03-01T06:47:01.358Z,-0.28
2023-03-01T06:48:06.723Z,-0.36
2023-03-01T06:49:10.704Z,-0.46
2023-03-01T06:50:12.537Z,-0.49
2023-03-01T06:51:14.550Z,-0.50
2023-03-01T06:52:16.350Z,-0.41
2023-03-01T06:53:18.221Z,-0.34
2023-03-01T06:54:23.351Z,-0.32
2023-03-01T06:55:25.219Z,-0.35
2023-03-01T06:56:27.030Z,-0.32
2023-03-01T06:57:29.196Z,-0.25
2023-03-01T06:58:31.280Z,-0.17
2023-03-01T06:59:33.072Z,-0.13
2023-03-01T07:00:34.873Z,-0.10
2023-03-01T07:01:36.942Z,-0.10
2023-03-01T07:02:38.732Z,-0.09
2023-03-01T07:03:40.622Z,-0.11
2023-03-01T07:04:42.602Z,-0.17
2023-03-01T07:05:45.699Z,-0.17
2023-03-01T07:06:47.610Z,-0.15
2023-03-01T07:07:49.462Z,-0.11
2023-03-01T07:08:51.364Z,-0.11
2023-03-01T07:09:54.565Z,-0.11
2023-03-01T07:11:00.210Z,-0.17
2023-03-01T07:12:02.606Z,-0.30
2023-03-01T07:13:04.425Z,-0.39
2023-03-01T07:14:07.180Z,-0.39
2023-03-01T07:15:10.665Z,-0.46
2023-03-01T07:16:12.481Z,-0.53
2023-03-01T07:17:14.455Z,-0.51
2023-03-01T07:18:16.283Z,-0.47
2023-03-01T07:19:18.108Z,-0.39
2023-03-01T07:20:23.733Z,-0.34
2023-03-01T07:21:25.583Z,-0.37
2023-03-01T07:22:27.497Z,-0.43
2023-03-01T07:23:29.340Z,-0.38
2023-03-01T07:24:31.277Z,-0.31
2023-03-01T07:25:33.414Z,-0.26
2023-03-01T07:26:35.171Z,-0.23
2023-03-01T07:27:37.628Z,-0.25
2023-03-01T07:28:40.580Z,-0.23
2023-03-01T07:29:42.437Z,-0.15
2023-03-01T07:30:44.331Z,-0.12
2023-03-01T07:31:46.158Z,-0.13
2023-03-01T07:32:48.397Z,-0.15
2023-03-01T07:33:50.705Z,-0.10
2023-03-01T07:34:53.104Z,-0.01
2023-03-01T07:35:59.365Z,0.06
2023-03-01T07:37:01.276Z,0.11
2023-03-01T07:38:03.171Z,0.19
2023-03-01T07:39:05.006Z,0.27
2023-03-01T07:40:07.253Z,0.33
2023-03-01T07:41:09.567Z,0.35
2023-03-01T07:42:11.341Z,0.32
2023-03-01T07:43:13.177Z,0.30
2023-03-01T07:44:15.127Z,0.27
2023-03-01T07:45:16.925Z,0.29
2023-03-01T07:46:20.364Z,0.31
2023-03-01T07:47:22.126Z,0.44
2023-03-01T07:48:23.992Z,0.53
2023-03-01T07:49:27.625Z,0.54
2023-03-01T07:50:29.425Z,0.52
2023-03-01T07:51:31.390Z,0.57
2023-03-01T07:52:33.241Z,0.41
2023-03-01T07:53:35.649Z,0.31
2023-03-01T07:54:37.413Z,0.27
2023-03-01T07:55:39.195Z,0.38
2023-03-01T07:56:42.222Z,0.50
2023-03-01T07:57:44.383Z,0.45
2023-03-01T07:58:47.139Z,0.45
2023-03-01T07:59:49.215Z,0.43
2023-03-01T08:00:51.570Z,0.49
2023-03-01T08:01:53.377Z,0.56
2023-03-01T08:02:55.452Z,0.53
2023-03-01T08:03:57.290Z,0.48
2023-03-01T08:04:59.104Z,0.53
2023-03-01T08:06:01.807Z,0.66
2023-03-01T08:07:05.796Z,0.77
2023-03-01T08:08:07.589Z,0.83
2023-03-01T08:09:09.798Z,0.88
2023-03-01T08:10:11.963Z,0.96
2023-03-01T08:11:15.137Z,1.02
2023-03-01T08:12:18.166Z,1.03
2023-03-01T08:13:23.746Z,1.02
2023-03-01T08:14:25.555Z,1.06
2023-03-01T08:15:27.341Z,1.06
2023-03-01T08:16:29.570Z,1.10
2023-03-01T08:17:31.566Z,1.18
2023-03-01T08:18:33.658Z,1.27
2023-03-01T08:19:36.009Z,1.31
2023-03-01T08:20:37.799Z,1.34
2023-03-01T08:21:39.954Z,1.37
2023-03-01T08:22:41.741Z,1.44
2023-03-01T08:23:44.207Z,1.43
2023-03-01T08:24:46.165Z,1.44
2023-03-01T08:25:47.934Z,1.49
2023-03-01T08:26:49.709Z,1.55
2023-03-01T08:27:51.490Z,1.58
2023-03-01T08:28:53.336Z,1.60
2023-03-01T08:29:55.210Z,1.60
2023-03-01T08:30:57.078Z,1.59
2023-03-01T08:31:59.016Z,1.67
2023-03-01T08:33:00.934Z,1.69
2023-03-01T08:34:04.209Z,1.68
2023-03-01T08:35:06.246Z,1.76
2023-03-01T08:36:08.310Z,1.78
2023-03-01T08:37:10.991Z,1.78
2023-03-01T08:38:12.786Z,1.78
2023-03-01T08:39:16.762Z,1.82
2023-03-01T08:40:18.658Z,1.89
2023-03-01T08:41:20.596Z,1.96
2023-03-01T08:42:22.495Z,1.99
2023-03-01T08:43:26.471Z,1.94
2023-03-01T08:44:28.401Z,2.00
2023-03-01T08:45:30.278Z,2.08
2023-03-01T08:46:34.067Z,2.04
2023-03-01T08:47:36.109Z,2.06
2023-03-01T08:48:37.983Z,2.15
2023-03-01T08:49:39.784Z,2.17
2023-03-01T08:50:42.502Z,2.15
2023-03-01T08:51:44.985Z,2.05
2023-03-01T08:52:46.934Z,2.05
2023-03-01T08:53:49.322Z,2.12
2023-03-01T08:54:51.182Z,2.19
2023-03-01T08:55:53.163Z,2.25
2023-03-01T08:56:55.069Z,2.28
2023-03-01T08:57:56.971Z,2.23
2023-03-01T08:58:58.833Z,2.24
2023-03-01T09:00:00.599Z,2.23
2023-03-01T09:01:02.682Z,2.22
2023-03-01T09:02:05.598Z,2.17
2023-03-01T09:03:07.382Z,2.15
2023-03-01T09:05:10.248Z,2.33
2023-03-01T09:06:12.769Z,2.35
2023-03-01T09:07:14.624Z,2.39
2023-03-01T09:08:18.735Z,2.38
2023-03-01T09:09:20.599Z,2.40
2023-03-01T09:10:22.436Z,2.44
2023-03-01T09:11:24.242Z,2.49
2023-03-01T09:12:26.327Z,2.59
2023-03-01T09:13:32.286Z,2.69
2023-03-01T09:14:34.058Z,2.72
2023-03-01T09:15:38.080Z,2.79
2023-03-01T09:16:41.384Z,2.80
2023-03-01T09:17:43.259Z,2.79
2023-03-01T09:18:45.706Z,2.66
2023-03-01T09:19:47.523Z,2.60
2023-03-01T09:20:49.361Z,2.57
2023-03-01T09:21:54.098Z,2.58
2023-03-01T09:22:55.899Z,2.62
2023-03-01T09:23:58.214Z,2.67
2023-03-01T09:25:00.856Z,2.73
2023-03-01T09:26:02.655Z,2.82
2023-03-01T09:27:04.483Z,2.90
2023-03-01T09:28:06.319Z,3.00
2023-03-01T09:29:08.268Z,3.09
2023-03-01T09:30:10.589Z,3.10
2023-03-01T09:31:16.238Z,3.23
2023-03-01T09:32:18.069Z,3.35
2023-03-01T09:33:20.556Z,3.40
2023-03-01T09:34:24.596Z,3.45
2023-03-01T09:35:26.527Z,3.53
2023-03-01T09:36:28.904Z,3.58
2023-03-01T09:37:31.096Z,3.63
2023-03-01T09:38:33.180Z,3.76
2023-03-01T09:39:34.976Z,3.88
2023-03-01T09:40:36.819Z,3.94
2023-03-01T09:41:47.653Z,4.04
2023-03-01T09:42:55.295Z,4.14
2023-03-01T09:44:15.972Z,4.28
2023-03-01T09:45:25.423Z,4.31
2023-03-01T09:46:28.081Z,4.39
2023-03-01T09:47:31.763Z,4.51
2023-03-01T09:48:38.496Z,4.61
2023-03-01T09:49:42.531Z,4.71
2023-03-01T09:50:44.888Z,4.84
2023-03-01T09:51:56.704Z,4.93
2023-03-01T09:53:11.195Z,4.98
2023-03-01T09:54:13.046Z,5.04
2023-03-01T09:55:16.451Z,5.11
2023-03-01T09:56:22.667Z,5.16
2023-03-01T09:57:30.239Z,5.26
2023-03-01T09:59:07.554Z,5.40
2023-03-01T10:00:09.490Z,5.63
2023-03-01T10:01:14.107Z,5.74
2023-03-01T10:02:28.731Z,5.76
2023-03-01T10:03:38.426Z,5.78
2023-03-01T10:04:48.325Z,5.80
2023-03-01T10:05:50.225Z,5.89
2023-03-01T10:07:10.651Z,5.95
2023-03-01T10:08:12.384Z,6.16
2023-03-01T10:09:17.298Z,6.25
2023-03-01T10:10:27.553Z,6.27
2023-03-01T10:11:34.037Z,6.37
2023-03-01T10:12:38.877Z,6.49
2023-03-01T10:13:50.428Z,6.53
2023-03-01T10:15:11.907Z,6.68
2023-03-01T10:16:16.274Z,6.68
2023-03-01T10:17:20.938Z,6.76
2023-03-01T10:18:24.804Z,6.90
2023-03-01T10:19:32.647Z,7.06
2023-03-01T10:20:38.968Z,7.05
2023-03-01T10:21:44.294Z,7.07
2023-03-01T10:22:52.412Z,7.17
2023-03-01T10:23:54.926Z,7.31
2023-03-01T10:24:58.688Z,7.45
2023-03-01T10:26:07.772Z,7.62
2023-03-01T10:27:18.353Z,7.76
2023-03-01T10:28:52.690Z,7.77
2023-03-01T10:30:26.732Z,7.90
2023-03-01T10:31:41.751Z,8.12
2023-03-01T10:32:44.601Z,8.28
2023-03-01T10:33:46.321Z,8.31
2023-03-01T10:34:49.235Z,8.35
2023-03-01T10:35:51.355Z,8.32
2023-03-01T10:36:54.790Z,8.39
2023-03-01T10:37:59.480Z,8.50
2023-03-01T10:39:05.168Z,8.65
2023-03-01T10:40:10.539Z,8.78
2023-03-01T10:41:13.334Z,8.89
2023-03-01T10:42:21.302Z,8.86
2023-03-01T10:43:23.468Z,8.97
2023-03-01T10:44:48.472Z,8.94
2023-03-01T10:45:50.393Z,8.98
2023-03-01T10:47:01.240Z,8.86
2023-03-01T10:48:07.491Z,8.80
2023-03-01T10:49:20.107Z,8.84
2023-03-01T10:50:23.882Z,8.89
2023-03-01T10:51:25.749Z,8.97
2023-03-01T10:52:29.424Z,9.05
2023-03-01T10:53:53.018Z,9.16
2023-03-01T10:54:57.222Z,9.36
2023-03-01T10:56:12.063Z,9.39
2023-03-01T10:57:29.283Z,9.33
2023-03-01T10:58:31.748Z,9.40
2023-03-01T10:59:33.571Z,9.40
2023-03-01T11:00:47.363Z,9.45
2023-03-01T11:02:05.187Z,9.56
2023-03-01T11:03:13.599Z,9.78
2023-03-01T11:04:15.630Z,9.74
2023-03-01T11:05:20.727Z,9.82
2023-03-01T11:06:23.470Z,9.97
2023-03-01T11:07:25.505Z,10.08
2023-03-01T11:08:35.156Z,10.13
2023-03-01T11:09:39.678Z,10.19
2023-03-01T11:10:41.524Z,10.33
2023-03-01T11:11:43.335Z,10.40
2023-03-01T11:12:45.125Z,10.44
2023-03-01T11:13:52.969Z,10.55
2023-03-01T11:14:56.010Z,10.71
2023-03-01T11:16:01.773Z,10.72
2023-03-01T11:17:13.952Z,10.71
2023-03-01T11:18:31.072Z,10.81
2023-03-01T11:19:38.976Z,10.80
2023-03-01T11:20:40.910Z,10.94
2023-03-01T11:21:45.558Z,11.10
2023-03-01T11:23:10.644Z,11.29
2023-03-01T11:24:14.202Z,11.56
2023-03-01T11:25:16.491Z,11.71
2023-03-01T11:26:18.751Z,11.72
2023-03-01T11:27:32.151Z,11.73
2023-03-01T11:28:35.393Z,11.71
2023-03-01T11:29:48.479Z,11.76
2023-03-01T11:31:08.237Z,11.95
2023-03-01T11:32:14.703Z,12.01
2023-03-01T11:33:34.871Z,11.82
2023-03-01T11:34:40.773Z,11.86
2023-03-01T11:35:55.978Z,11.82
2023-03-01T11:37:01.343Z,11.91
2023-03-01T11:38:03.154Z,12.08
2023-03-01T11:39:20.192Z,12.10
2023-03-01T11:40:27.411Z,12.17
2023-03-01T11:41:32.669Z,12.30
2023-03-01T11:42:53.296Z,12.37
2023-03-01T11:44:02.603Z,12.30
2023-03-01T11:45:08.662Z,12.31
2023-03-01T11:46:22.522Z,12.35
2023-03-01T11:47:27.469Z,12.49
2023-03-01T11:48:50.144Z,12.66
2023-03-01T11:50:03.485Z,12.66
2023-03-01T11:51:10.367Z,12.67
2023-03-01T11:52:17.830Z,12.70
2023-03-01T11:53:36.088Z,12.77
2023-03-01T11:54:53.117Z,12.93
2023-03-01T11:55:54.844Z,13.01
2023-03-01T11:56:59.238Z,13.18
2023-03-01T11:58:07.207Z,13.29
2023-03-01T11:59:22.930Z,13.31
2023-03-01T12:00:39.720Z,13.33
2023-03-01T12:01:48.023Z,13.44
2023-03-01T12:03:08.316Z,13.48
2023-03-01T12:04:38.607Z,13.51
2023-03-01T12:06:04.720Z,13.57
2023-03-01T12:07:12.479Z,13.82
2023-03-01T12:08:33.003Z,14.08
2023-03-01T12:09:34.778Z,14.26
2023-03-01T12:10:59.436Z,14.34
2023-03-01T12:12:20.008Z,14.62
2023-03-01T12:13:40.328Z,14.73
2023-03-01T12:14:42.134Z,14.68
2023-03-01T12:16:05.024Z,14.80
2023-03-01T12:17:15.954Z,14.96
2023-03-01T12:18:36.358Z,15.06
2023-03-01T12:19:47.365Z,15.04
2023-03-01T12:21:08.038Z,14.92
2023-03-01T12:22:09.799Z,14.90
2023-03-01T12:23:27.030Z,14.97
2023-03-01T12:24:31.971Z,15.09
2023-03-01T12:25:57.086Z,15.27
2023-03-01T12:27:22.216Z,15.31
2023-03-01T12:28:46.881Z,15.34
2023-03-01T12:30:10.964Z,15.33
2023-03-01T12:31:35.953Z,15.28
2023-03-01T12:32:50.378Z,15.34
2023-03-01T12:34:10.856Z,15.16
2023-03-01T12:35:22.440Z,15.10
2023-03-01T12:36:47.616Z,15.05
2023-03-01T12:38:07.663Z,14.95
2023-03-01T12:39:09.444Z,14.94
2023-03-01T12:40:17.878Z,14.77
2023-03-01T12:41:25.870Z,14.36
2023-03-01T12:42:48.814Z,14.48
2023-03-01T12:44:11.508Z,14.34
2023-03-01T12:45:14.223Z,14.07
2023-03-01T12:46:22.010Z,13.44
2023-03-01T12:47:38.819Z,13.36
2023-03-01T12:48:44.750Z,13.10
2023-03-01T12:50:06.893Z,12.95
2023-03-01T12:51:15.591Z,13.08
2023-03-01T12:52:36.029Z,13.39
2023-03-01T12:53:41.083Z,13.55
2023-03-01T12:54:43.044Z,13.69
2023-03-01T12:55:44.826Z,13.94
2023-03-01T12:56:53.818Z,13.97
2023-03-01T12:57:58.411Z,14.05
2023-03-01T12:59:00.529Z,14.01
2023-03-01T13:00:18.817Z,14.01
2023-03-01T13:01:20.739Z,13.94
2023-03-01T13:02:22.596Z,13.70
2023-03-01T13:03:34.651Z,13.62
2023-03-01T13:04:42.256Z,13.85
2023-03-01T13:05:57.160Z,13.86
2023-03-01T13:06:58.970Z,13.89
2023-03-01T13:08:00.770Z,13.70
2023-03-01T13:09:09.193Z,13.71
2023-03-01T13:10:20.553Z,13.93
2023-03-01T13:11:23.381Z,13.75
2023-03-01T13:12:43.837Z,13.93
2023-03-01T13:13:47.701Z,13.98
2023-03-01T13:14:49.597Z,14.01
2023-03-01T13:15:54.471Z,14.05
2023-03-01T13:16:56.895Z,13.93
2023-03-01T13:18:24.277Z,13.76
2023-03-01T13:19:27.185Z,13.49
2023-03-01T13:20:33.336Z,13.62
2023-03-01T13:21:35.134Z,13.72
2023-03-01T13:22:49.768Z,13.60
2023-03-01T13:23:56.052Z,13.53
2023-03-01T13:25:14.849Z,13.58
2023-03-01T13:26:18.419Z,13.67
2023-03-01T13:27:30.648Z,13.71
2023-03-01T13:28:35.140Z,13.68
2023-03-01T13:29:43.092Z,13.56
2023-03-01T13:30:44.976Z,13.28
2023-03-01T13:31:49.842Z,13.15
2023-03-01T13:32:51.816Z,13.05
2023-03-01T13:33:54.083Z,12.91
2023-03-01T13:34:57.359Z,13.02
2023-03-01T13:35:59.833Z,13.23
2023-03-01T13:37:10.167Z,13.38
2023-03-01T13:38:30.550Z,13.46
2023-03-01T13:39:39.853Z,13.33
2023-03-01T13:40:50.874Z,13.53
2023-03-01T13:41:53.965Z,13.76
2023-03-01T13:43:05.194Z,13.89
2023-03-01T13:44:34.291Z,13.83
2023-03-01T13:45:39.644Z,13.91
2023-03-01T13:46:41.913Z,13.94
2023-03-01T13:47:44.836Z,13.85
2023-03-01T13:48:49.523Z,13.96
2023-03-01T13:49:59.008Z,14.05
2023-03-01T13:51:02.997Z,14.06
2023-03-01T13:52:06.879Z,14.11
2023-03-01T13:53:11.907Z,14.20
2023-03-01T13:54:14.868Z,14.29
2023-03-01T13:55:17.992Z,14.34
2023-03-01T13:56:22.938Z,14.49
2023-03-01T13:57:27.411Z,14.59
2023-03-01T13:58:31.728Z,14.41
2023-03-01T13:59:33.462Z,14.32
2023-03-01T14:00:39.285Z,14.21
2023-03-01T14:01:43.579Z,14.31
2023-03-01T14:02:45.777Z,14.51
2023-03-01T14:03:47.631Z,14.73
2023-03-01T14:05:02.208Z,14.91
2023-03-01T14:06:14.100Z,14.87
2023-03-01T14:07:21.208Z,14.74